sensor_id;sensor_type;location;lat;lon;timestamp;temperature;humidity
46720;DHT22;32452;51.382;-0.002;2023-11-18T00:01:11;9.60;99.90
46720;DHT22;32452;51.382;-0.002;2023-11-18T00:03:56;9.60;99.90
46720;DHT22;32452;51.382;-0.002;2023-11-18T00:06:43;9.60;99.90
46720;DHT22;32452;51.382;-0.002;2023-11-18T00:09:31;9.60;99.90
46720;DHT22;32452;51.382;-0.002;2023-11-18T00:12:16;9.60;99.90
46720;DHT22;32452;51.382;-0.002;2023-11-18T00:15:03;9.60;99.90
46720;DHT22;32452;51.382;-0.002;2023-11-18T00:17:49;9.60;99.90
46720;DHT22;32452;51.382;-0.002;2023-11-18T00:20:35;9.60;99.90
46720;DHT22;32452;51.382;-0.002;2023-11-18T00:23:21;9.60;99.90
46720;DHT22;32452;51.382;-0.002;2023-11-18T00:26:06;9.50;99.90
46720;DHT22;32452;51.382;-0.002;2023-11-18T00:28:52;9.60;99.90
46720;DHT22;32452;51.382;-0.002;2023-11-18T00:31:38;9.60;99.90
46720;DHT22;32452;51.382;-0.002;2023-11-18T00:34:24;9.60;99.90
46720;DHT22;32452;51.382;-0.002;2023-11-18T00:37:10;9.50;99.90
46720;DHT22;32452;51.382;-0.002;2023-11-18T00:39:55;9.50;99.90
46720;DHT22;32452;51.382;-0.002;2023-11-18T00:42:41;9.50;99.90
46720;DHT22;32452;51.382;-0.002;2023-11-18T00:45:27;9.50;99.90
46720;DHT22;32452;51.382;-0.002;2023-11-18T00:48:14;9.50;99.90
46720;DHT22;32452;51.382;-0.002;2023-11-18T00:51:00;9.50;99.90
46720;DHT22;32452;51.382;-0.002;2023-11-18T00:53:45;9.50;99.90
46720;DHT22;32452;51.382;-0.002;2023-11-18T00:56:32;9.50;99.90
46720;DHT22;32452;51.382;-0.002;2023-11-18T00:59:18;9.50;99.90
46720;DHT22;32452;51.382;-0.002;2023-11-18T01:02:03;9.40;99.90
46720;DHT22;32452;51.382;-0.002;2023-11-18T01:04:50;9.40;99.90
46720;DHT22;32452;51.382;-0.002;2023-11-18T01:07:36;9.40;99.90
46720;DHT22;32452;51.382;-0.002;2023-11-18T01:10:22;9.40;99.90
46720;DHT22;32452;51.382;-0.002;2023-11-18T01:13:07;9.30;99.90
46720;DHT22;32452;51.382;-0.002;2023-11-18T01:15:54;9.30;99.90
46720;DHT22;32452;51.382;-0.002;2023-11-18T01:18:40;9.30;99.90
46720;DHT22;32452;51.382;-0.002;2023-11-18T01:21:25;9.30;99.90
46720;DHT22;32452;51.382;-0.002;2023-11-18T01:24:12;9.30;99.90
46720;DHT22;32452;51.382;-0.002;2023-11-18T01:26:59;9.30;99.90
46720;DHT22;32452;51.382;-0.002;2023-11-18T01:29:45;9.30;99.90
46720;DHT22;32452;51.382;-0.002;2023-11-18T01:32:31;9.30;99.90
46720;DHT22;32452;51.382;-0.002;2023-11-18T01:35:17;9.30;99.90
46720;DHT22;32452;51.382;-0.002;2023-11-18T01:38:03;9.20;99.90
46720;DHT22;32452;51.382;-0.002;2023-11-18T01:40:50;9.20;99.90
46720;DHT22;32452;51.382;-0.002;2023-11-18T01:43:36;9.20;99.90
46720;DHT22;32452;51.382;-0.002;2023-11-18T01:46:22;9.20;99.90
46720;DHT22;32452;51.382;-0.002;2023-11-18T01:49:09;9.20;99.90
46720;DHT22;32452;51.382;-0.002;2023-11-18T01:51:56;9.20;99.90
46720;DHT22;32452;51.382;-0.002;2023-11-18T01:54:41;9.20;99.90
46720;DHT22;32452;51.382;-0.002;2023-11-18T01:57:30;9.20;99.90
46720;DHT22;32452;51.382;-0.002;2023-11-18T02:00:15;9.20;99.90
46720;DHT22;32452;51.382;-0.002;2023-11-18T02:03:05;9.20;99.90
46720;DHT22;32452;51.382;-0.002;2023-11-18T02:05:51;9.20;99.90
46720;DHT22;32452;51.382;-0.002;2023-11-18T02:08:37;9.20;99.90
46720;DHT22;32452;51.382;-0.002;2023-11-18T02:11:30;9.30;99.90
46720;DHT22;32452;51.382;-0.002;2023-11-18T02:14:18;9.30;99.90
46720;DHT22;32452;51.382;-0.002;2023-11-18T02:17:06;9.20;99.90
46720;DHT22;32452;51.382;-0.002;2023-11-18T02:19:57;9.30;99.90
46720;DHT22;32452;51.382;-0.002;2023-11-18T02:22:43;9.30;99.90
46720;DHT22;32452;51.382;-0.002;2023-11-18T02:25:29;9.30;99.90
46720;DHT22;32452;51.382;-0.002;2023-11-18T02:28:19;9.30;99.90
46720;DHT22;32452;51.382;-0.002;2023-11-18T02:31:15;9.30;99.90
46720;DHT22;32452;51.382;-0.002;2023-11-18T02:34:24;9.30;99.90
46720;DHT22;32452;51.382;-0.002;2023-11-18T02:37:13;9.40;99.90
46720;DHT22;32452;51.382;-0.002;2023-11-18T02:40:04;9.40;99.90
46720;DHT22;32452;51.382;-0.002;2023-11-18T02:42:54;9.40;99.90
46720;DHT22;32452;51.382;-0.002;2023-11-18T02:45:41;9.40;99.90
46720;DHT22;32452;51.382;-0.002;2023-11-18T02:48:27;9.50;99.90
46720;DHT22;32452;51.382;-0.002;2023-11-18T02:51:13;9.50;99.90
46720;DHT22;32452;51.382;-0.002;2023-11-18T02:53:59;9.50;99.90
46720;DHT22;32452;51.382;-0.002;2023-11-18T02:56:44;9.50;99.90
46720;DHT22;32452;51.382;-0.002;2023-11-18T02:59:30;9.50;99.90
46720;DHT22;32452;51.382;-0.002;2023-11-18T03:02:16;9.60;99.90
46720;DHT22;32452;51.382;-0.002;2023-11-18T03:05:01;9.60;99.90
46720;DHT22;32452;51.382;-0.002;2023-11-18T03:07:48;9.60;99.90
46720;DHT22;32452;51.382;-0.002;2023-11-18T03:10:39;9.60;99.90
46720;DHT22;32452;51.382;-0.002;2023-11-18T03:13:26;9.60;99.90
46720;DHT22;32452;51.382;-0.002;2023-11-18T03:16:12;9.70;99.90
46720;DHT22;32452;51.382;-0.002;2023-11-18T03:18:58;9.70;99.90
46720;DHT22;32452;51.382;-0.002;2023-11-18T03:21:44;9.70;99.90
46720;DHT22;32452;51.382;-0.002;2023-11-18T03:24:29;9.70;99.90
46720;DHT22;32452;51.382;-0.002;2023-11-18T03:27:15;9.80;99.90
46720;DHT22;32452;51.382;-0.002;2023-11-18T03:30:01;9.80;99.90
46720;DHT22;32452;51.382;-0.002;2023-11-18T03:32:47;9.80;99.90
46720;DHT22;32452;51.382;-0.002;2023-11-18T03:35:32;9.80;99.90
46720;DHT22;32452;51.382;-0.002;2023-11-18T03:38:18;9.80;99.90
46720;DHT22;32452;51.382;-0.002;2023-11-18T03:41:03;9.90;99.90
46720;DHT22;32452;51.382;-0.002;2023-11-18T03:43:49;9.80;99.90
46720;DHT22;32452;51.382;-0.002;2023-11-18T03:46:34;9.90;99.90
46720;DHT22;32452;51.382;-0.002;2023-11-18T03:49:20;9.90;99.90
46720;DHT22;32452;51.382;-0.002;2023-11-18T03:52:06;9.90;99.90
46720;DHT22;32452;51.382;-0.002;2023-11-18T03:54:51;9.90;99.90
46720;DHT22;32452;51.382;-0.002;2023-11-18T03:57:37;9.90;99.90
46720;DHT22;32452;51.382;-0.002;2023-11-18T04:00:22;9.90;99.90
46720;DHT22;32452;51.382;-0.002;2023-11-18T04:03:08;10.00;99.90
46720;DHT22;32452;51.382;-0.002;2023-11-18T04:05:55;10.00;99.90
46720;DHT22;32452;51.382;-0.002;2023-11-18T04:08:46;10.00;99.90
46720;DHT22;32452;51.382;-0.002;2023-11-18T04:11:32;10.00;99.90
46720;DHT22;32452;51.382;-0.002;2023-11-18T04:14:17;10.00;99.90
46720;DHT22;32452;51.382;-0.002;2023-11-18T04:17:03;10.10;99.90
46720;DHT22;32452;51.382;-0.002;2023-11-18T04:19:49;10.10;99.90
46720;DHT22;32452;51.382;-0.002;2023-11-18T04:22:34;10.10;99.90
46720;DHT22;32452;51.382;-0.002;2023-11-18T04:25:20;10.10;99.90
46720;DHT22;32452;51.382;-0.002;2023-11-18T04:28:06;10.10;99.90
46720;DHT22;32452;51.382;-0.002;2023-11-18T04:30:51;10.20;99.90
46720;DHT22;32452;51.382;-0.002;2023-11-18T04:33:37;10.20;99.90
46720;DHT22;32452;51.382;-0.002;2023-11-18T04:36:22;10.20;99.90
46720;DHT22;32452;51.382;-0.002;2023-11-18T04:39:08;10.20;99.90
46720;DHT22;32452;51.382;-0.002;2023-11-18T04:41:56;10.30;99.90
46720;DHT22;32452;51.382;-0.002;2023-11-18T04:44:42;10.30;99.90
46720;DHT22;32452;51.382;-0.002;2023-11-18T04:47:28;10.30;99.90
46720;DHT22;32452;51.382;-0.002;2023-11-18T04:50:13;10.30;99.90
46720;DHT22;32452;51.382;-0.002;2023-11-18T04:53:00;10.30;99.90
46720;DHT22;32452;51.382;-0.002;2023-11-18T04:55:45;10.30;99.90
46720;DHT22;32452;51.382;-0.002;2023-11-18T04:58:31;10.40;99.90
46720;DHT22;32452;51.382;-0.002;2023-11-18T05:01:16;10.40;99.90
46720;DHT22;32452;51.382;-0.002;2023-11-18T05:04:03;10.40;99.90
46720;DHT22;32452;51.382;-0.002;2023-11-18T05:06:49;10.40;99.90
46720;DHT22;32452;51.382;-0.002;2023-11-18T05:09:35;10.50;99.90
46720;DHT22;32452;51.382;-0.002;2023-11-18T05:12:20;10.50;99.90
46720;DHT22;32452;51.382;-0.002;2023-11-18T05:15:06;10.50;99.90
46720;DHT22;32452;51.382;-0.002;2023-11-18T05:17:53;10.60;99.90
46720;DHT22;32452;51.382;-0.002;2023-11-18T05:20:39;10.60;99.90
46720;DHT22;32452;51.382;-0.002;2023-11-18T05:23:24;10.60;99.90
46720;DHT22;32452;51.382;-0.002;2023-11-18T05:26:10;10.70;99.90
46720;DHT22;32452;51.382;-0.002;2023-11-18T05:28:56;10.60;99.90
46720;DHT22;32452;51.382;-0.002;2023-11-18T05:31:41;10.70;99.90
46720;DHT22;32452;51.382;-0.002;2023-11-18T05:34:27;10.70;99.90
46720;DHT22;32452;51.382;-0.002;2023-11-18T05:37:12;10.80;99.90
46720;DHT22;32452;51.382;-0.002;2023-11-18T05:39:59;10.80;99.90
46720;DHT22;32452;51.382;-0.002;2023-11-18T05:42:51;10.80;99.90
46720;DHT22;32452;51.382;-0.002;2023-11-18T05:45:38;10.80;99.90
46720;DHT22;32452;51.382;-0.002;2023-11-18T05:48:44;10.80;99.90
46720;DHT22;32452;51.382;-0.002;2023-11-18T05:51:30;10.80;99.90
46720;DHT22;32452;51.382;-0.002;2023-11-18T05:54:16;10.80;99.90
46720;DHT22;32452;51.382;-0.002;2023-11-18T05:57:02;10.80;99.90
46720;DHT22;32452;51.382;-0.002;2023-11-18T05:59:48;10.90;99.90
46720;DHT22;32452;51.382;-0.002;2023-11-18T06:02:33;10.90;99.90
46720;DHT22;32452;51.382;-0.002;2023-11-18T06:05:21;10.90;99.90
46720;DHT22;32452;51.382;-0.002;2023-11-18T06:08:11;10.90;99.90
46720;DHT22;32452;51.382;-0.002;2023-11-18T06:10:57;10.90;99.90
46720;DHT22;32452;51.382;-0.002;2023-11-18T06:13:48;10.90;99.90
46720;DHT22;32452;51.382;-0.002;2023-11-18T06:16:34;10.90;99.90
46720;DHT22;32452;51.382;-0.002;2023-11-18T06:19:23;11.00;99.90
46720;DHT22;32452;51.382;-0.002;2023-11-18T06:22:08;10.90;99.90
46720;DHT22;32452;51.382;-0.002;2023-11-18T06:24:56;10.90;99.90
46720;DHT22;32452;51.382;-0.002;2023-11-18T06:27:44;11.00;99.90
46720;DHT22;32452;51.382;-0.002;2023-11-18T06:30:33;11.00;99.90
46720;DHT22;32452;51.382;-0.002;2023-11-18T06:33:19;11.00;99.90
46720;DHT22;32452;51.382;-0.002;2023-11-18T06:38:59;11.00;99.90
46720;DHT22;32452;51.382;-0.002;2023-11-18T06:41:45;11.10;99.90
46720;DHT22;32452;51.382;-0.002;2023-11-18T06:44:36;11.10;99.90
46720;DHT22;32452;51.382;-0.002;2023-11-18T06:47:21;11.10;99.90
46720;DHT22;32452;51.382;-0.002;2023-11-18T06:50:08;11.10;99.90
46720;DHT22;32452;51.382;-0.002;2023-11-18T06:52:56;11.10;99.90
46720;DHT22;32452;51.382;-0.002;2023-11-18T06:55:41;11.10;99.90
46720;DHT22;32452;51.382;-0.002;2023-11-18T06:58:27;11.10;99.90
46720;DHT22;32452;51.382;-0.002;2023-11-18T07:01:14;11.10;99.90
46720;DHT22;32452;51.382;-0.002;2023-11-18T07:04:03;11.10;99.90
46720;DHT22;32452;51.382;-0.002;2023-11-18T07:06:50;11.10;99.90
46720;DHT22;32452;51.382;-0.002;2023-11-18T07:09:35;11.20;99.90
46720;DHT22;32452;51.382;-0.002;2023-11-18T07:12:21;11.20;99.90
46720;DHT22;32452;51.382;-0.002;2023-11-18T07:15:08;11.20;99.90
46720;DHT22;32452;51.382;-0.002;2023-11-18T07:17:55;11.20;99.90
46720;DHT22;32452;51.382;-0.002;2023-11-18T07:20:41;11.20;99.90
46720;DHT22;32452;51.382;-0.002;2023-11-18T07:23:27;11.20;99.90
46720;DHT22;32452;51.382;-0.002;2023-11-18T07:26:13;11.20;99.90
46720;DHT22;32452;51.382;-0.002;2023-11-18T07:29:01;11.20;99.90
46720;DHT22;32452;51.382;-0.002;2023-11-18T07:31:47;11.30;99.90
46720;DHT22;32452;51.382;-0.002;2023-11-18T07:34:34;11.30;99.90
46720;DHT22;32452;51.382;-0.002;2023-11-18T07:37:20;11.30;99.90
46720;DHT22;32452;51.382;-0.002;2023-11-18T07:40:06;11.30;99.90
46720;DHT22;32452;51.382;-0.002;2023-11-18T07:42:57;11.30;99.90
46720;DHT22;32452;51.382;-0.002;2023-11-18T07:45:43;11.30;99.90
46720;DHT22;32452;51.382;-0.002;2023-11-18T07:48:29;11.40;99.90
46720;DHT22;32452;51.382;-0.002;2023-11-18T07:51:16;11.40;99.90
46720;DHT22;32452;51.382;-0.002;2023-11-18T07:54:02;11.40;99.90
46720;DHT22;32452;51.382;-0.002;2023-11-18T07:56:49;11.40;99.90
46720;DHT22;32452;51.382;-0.002;2023-11-18T07:59:35;11.40;99.90
46720;DHT22;32452;51.382;-0.002;2023-11-18T08:02:20;11.50;99.90
46720;DHT22;32452;51.382;-0.002;2023-11-18T08:05:06;11.50;99.90
46720;DHT22;32452;51.382;-0.002;2023-11-18T08:08:07;11.50;99.90
46720;DHT22;32452;51.382;-0.002;2023-11-18T08:10:53;11.60;99.90
46720;DHT22;32452;51.382;-0.002;2023-11-18T08:13:40;11.60;99.90
46720;DHT22;32452;51.382;-0.002;2023-11-18T08:16:26;11.60;99.90
46720;DHT22;32452;51.382;-0.002;2023-11-18T08:19:13;11.70;99.90
46720;DHT22;32452;51.382;-0.002;2023-11-18T08:21:59;11.70;99.90
46720;DHT22;32452;51.382;-0.002;2023-11-18T08:24:46;11.80;99.90
46720;DHT22;32452;51.382;-0.002;2023-11-18T08:27:32;11.80;99.90
46720;DHT22;32452;51.382;-0.002;2023-11-18T08:30:17;11.90;99.90
46720;DHT22;32452;51.382;-0.002;2023-11-18T08:33:22;11.90;99.90
46720;DHT22;32452;51.382;-0.002;2023-11-18T08:36:11;11.90;99.90
46720;DHT22;32452;51.382;-0.002;2023-11-18T08:38:58;12.00;99.90
46720;DHT22;32452;51.382;-0.002;2023-11-18T08:41:43;12.00;99.90
46720;DHT22;32452;51.382;-0.002;2023-11-18T08:44:29;12.00;99.90
46720;DHT22;32452;51.382;-0.002;2023-11-18T08:47:17;12.10;99.90
46720;DHT22;32452;51.382;-0.002;2023-11-18T08:50:04;12.20;99.90
46720;DHT22;32452;51.382;-0.002;2023-11-18T08:52:58;12.20;99.90
46720;DHT22;32452;51.382;-0.002;2023-11-18T08:55:44;12.30;99.90
46720;DHT22;32452;51.382;-0.002;2023-11-18T08:58:36;12.40;99.90
46720;DHT22;32452;51.382;-0.002;2023-11-18T09:01:23;12.40;99.90
46720;DHT22;32452;51.382;-0.002;2023-11-18T09:04:13;12.40;99.90
46720;DHT22;32452;51.382;-0.002;2023-11-18T09:07:00;12.50;99.90
46720;DHT22;32452;51.382;-0.002;2023-11-18T09:09:46;12.50;99.90
46720;DHT22;32452;51.382;-0.002;2023-11-18T09:12:34;12.60;99.90
46720;DHT22;32452;51.382;-0.002;2023-11-18T09:15:20;12.60;99.90
46720;DHT22;32452;51.382;-0.002;2023-11-18T09:18:09;12.60;99.90
46720;DHT22;32452;51.382;-0.002;2023-11-18T09:20:56;12.70;99.90
46720;DHT22;32452;51.382;-0.002;2023-11-18T09:23:44;12.70;99.90
46720;DHT22;32452;51.382;-0.002;2023-11-18T09:26:31;12.70;99.90
46720;DHT22;32452;51.382;-0.002;2023-11-18T09:29:17;12.80;99.90
46720;DHT22;32452;51.382;-0.002;2023-11-18T09:32:04;12.80;99.90
46720;DHT22;32452;51.382;-0.002;2023-11-18T09:34:51;12.80;99.90
46720;DHT22;32452;51.382;-0.002;2023-11-18T09:37:39;12.90;99.90
46720;DHT22;32452;51.382;-0.002;2023-11-18T09:40:29;12.90;99.90
46720;DHT22;32452;51.382;-0.002;2023-11-18T09:43:18;12.90;99.90
46720;DHT22;32452;51.382;-0.002;2023-11-18T09:46:06;13.00;99.90
46720;DHT22;32452;51.382;-0.002;2023-11-18T09:49:09;13.00;99.90
46720;DHT22;32452;51.382;-0.002;2023-11-18T09:52:03;13.10;99.90
46720;DHT22;32452;51.382;-0.002;2023-11-18T09:55:03;13.10;99.90
46720;DHT22;32452;51.382;-0.002;2023-11-18T09:57:55;13.10;99.90
46720;DHT22;32452;51.382;-0.002;2023-11-18T10:00:44;13.20;99.90
46720;DHT22;32452;51.382;-0.002;2023-11-18T10:03:32;13.20;99.90
46720;DHT22;32452;51.382;-0.002;2023-11-18T10:06:23;13.20;99.90
46720;DHT22;32452;51.382;-0.002;2023-11-18T10:09:11;13.30;99.90
46720;DHT22;32452;51.382;-0.002;2023-11-18T10:12:05;13.30;99.90
46720;DHT22;32452;51.382;-0.002;2023-11-18T10:14:52;13.40;99.90
46720;DHT22;32452;51.382;-0.002;2023-11-18T10:17:42;13.40;99.90
46720;DHT22;32452;51.382;-0.002;2023-11-18T10:20:48;13.40;99.90
46720;DHT22;32452;51.382;-0.002;2023-11-18T10:23:36;13.50;99.90
46720;DHT22;32452;51.382;-0.002;2023-11-18T10:26:25;13.50;99.90
46720;DHT22;32452;51.382;-0.002;2023-11-18T10:29:11;13.60;99.90
46720;DHT22;32452;51.382;-0.002;2023-11-18T10:32:07;13.60;99.90
46720;DHT22;32452;51.382;-0.002;2023-11-18T10:34:58;13.60;99.90
46720;DHT22;32452;51.382;-0.002;2023-11-18T10:37:44;13.60;99.90
46720;DHT22;32452;51.382;-0.002;2023-11-18T10:40:33;13.70;99.90
46720;DHT22;32452;51.382;-0.002;2023-11-18T10:43:22;13.70;99.90
46720;DHT22;32452;51.382;-0.002;2023-11-18T10:46:14;13.70;99.90
46720;DHT22;32452;51.382;-0.002;2023-11-18T10:49:00;13.70;99.90
46720;DHT22;32452;51.382;-0.002;2023-11-18T10:51:47;13.80;99.90
46720;DHT22;32452;51.382;-0.002;2023-11-18T10:54:33;13.80;99.90
46720;DHT22;32452;51.382;-0.002;2023-11-18T10:57:19;13.80;99.90
46720;DHT22;32452;51.382;-0.002;2023-11-18T11:00:06;13.80;99.90
46720;DHT22;32452;51.382;-0.002;2023-11-18T11:03:05;13.80;99.90
46720;DHT22;32452;51.382;-0.002;2023-11-18T11:05:51;13.90;99.90
46720;DHT22;32452;51.382;-0.002;2023-11-18T11:08:40;13.90;99.90
46720;DHT22;32452;51.382;-0.002;2023-11-18T11:11:43;13.90;99.90
46720;DHT22;32452;51.382;-0.002;2023-11-18T11:14:34;14.00;99.90
46720;DHT22;32452;51.382;-0.002;2023-11-18T11:17:28;14.00;99.90
46720;DHT22;32452;51.382;-0.002;2023-11-18T11:20:21;14.00;99.90
46720;DHT22;32452;51.382;-0.002;2023-11-18T11:30:05;14.20;99.90
46720;DHT22;32452;51.382;-0.002;2023-11-18T11:36:03;14.20;99.90
46720;DHT22;32452;51.382;-0.002;2023-11-18T11:38:52;14.20;99.90
46720;DHT22;32452;51.382;-0.002;2023-11-18T11:41:45;14.30;99.90
46720;DHT22;32452;51.382;-0.002;2023-11-18T11:44:31;14.30;99.90
46720;DHT22;32452;51.382;-0.002;2023-11-18T11:47:18;14.30;99.90
46720;DHT22;32452;51.382;-0.002;2023-11-18T11:53:16;14.30;99.90
46720;DHT22;32452;51.382;-0.002;2023-11-18T11:56:06;14.30;99.90
46720;DHT22;32452;51.382;-0.002;2023-11-18T11:58:52;14.30;99.90
46720;DHT22;32452;51.382;-0.002;2023-11-18T12:01:39;14.40;99.90
46720;DHT22;32452;51.382;-0.002;2023-11-18T12:04:33;14.40;99.90
46720;DHT22;32452;51.382;-0.002;2023-11-18T12:07:19;14.40;99.90
46720;DHT22;32452;51.382;-0.002;2023-11-18T12:10:08;14.40;99.90
46720;DHT22;32452;51.382;-0.002;2023-11-18T12:13:09;14.40;99.90
46720;DHT22;32452;51.382;-0.002;2023-11-18T12:16:02;14.50;99.90
46720;DHT22;32452;51.382;-0.002;2023-11-18T12:19:28;14.40;99.90
46720;DHT22;32452;51.382;-0.002;2023-11-18T12:28:07;14.40;99.90
46720;DHT22;32452;51.382;-0.002;2023-11-18T12:30:54;14.50;99.90
46720;DHT22;32452;51.382;-0.002;2023-11-18T12:34:12;14.40;99.90
46720;DHT22;32452;51.382;-0.002;2023-11-18T12:43:10;14.60;99.90
46720;DHT22;32452;51.382;-0.002;2023-11-18T12:49:14;14.60;99.90
46720;DHT22;32452;51.382;-0.002;2023-11-18T12:52:00;14.60;99.90
46720;DHT22;32452;51.382;-0.002;2023-11-18T12:54:48;14.70;99.90
46720;DHT22;32452;51.382;-0.002;2023-11-18T12:57:37;14.70;99.90
46720;DHT22;32452;51.382;-0.002;2023-11-18T13:00:24;14.70;99.90
46720;DHT22;32452;51.382;-0.002;2023-11-18T13:03:13;14.80;99.90
46720;DHT22;32452;51.382;-0.002;2023-11-18T13:06:00;14.80;99.90
46720;DHT22;32452;51.382;-0.002;2023-11-18T13:08:46;14.80;99.90
46720;DHT22;32452;51.382;-0.002;2023-11-18T13:11:32;14.80;99.90
46720;DHT22;32452;51.382;-0.002;2023-11-18T13:14:19;14.80;99.90
46720;DHT22;32452;51.382;-0.002;2023-11-18T13:17:09;14.80;99.90
46720;DHT22;32452;51.382;-0.002;2023-11-18T13:19:57;14.80;99.90
46720;DHT22;32452;51.382;-0.002;2023-11-18T13:22:43;14.80;99.90
46720;DHT22;32452;51.382;-0.002;2023-11-18T13:25:32;14.70;99.90
46720;DHT22;32452;51.382;-0.002;2023-11-18T13:28:18;14.70;99.90
46720;DHT22;32452;51.382;-0.002;2023-11-18T13:31:07;14.80;99.90
46720;DHT22;32452;51.382;-0.002;2023-11-18T13:33:56;14.80;99.90
46720;DHT22;32452;51.382;-0.002;2023-11-18T13:36:43;14.80;99.90
46720;DHT22;32452;51.382;-0.002;2023-11-18T13:39:29;14.80;99.90
46720;DHT22;32452;51.382;-0.002;2023-11-18T13:42:21;14.80;99.90
46720;DHT22;32452;51.382;-0.002;2023-11-18T13:45:14;14.80;99.90
46720;DHT22;32452;51.382;-0.002;2023-11-18T13:48:21;14.70;99.90
46720;DHT22;32452;51.382;-0.002;2023-11-18T13:51:12;14.70;99.90
46720;DHT22;32452;51.382;-0.002;2023-11-18T13:53:59;14.70;99.90
46720;DHT22;32452;51.382;-0.002;2023-11-18T13:56:44;14.70;99.90
46720;DHT22;32452;51.382;-0.002;2023-11-18T13:59:31;14.70;99.90
46720;DHT22;32452;51.382;-0.002;2023-11-18T14:02:17;14.70;99.90
46720;DHT22;32452;51.382;-0.002;2023-11-18T14:05:03;14.70;99.90
46720;DHT22;32452;51.382;-0.002;2023-11-18T14:07:54;14.70;99.90
46720;DHT22;32452;51.382;-0.002;2023-11-18T14:10:45;14.70;99.90
46720;DHT22;32452;51.382;-0.002;2023-11-18T14:13:42;14.70;99.90
46720;DHT22;32452;51.382;-0.002;2023-11-18T14:16:28;14.70;99.90
46720;DHT22;32452;51.382;-0.002;2023-11-18T14:19:13;14.70;99.90
46720;DHT22;32452;51.382;-0.002;2023-11-18T14:21:59;14.70;99.90
46720;DHT22;32452;51.382;-0.002;2023-11-18T14:24:45;14.70;99.90
46720;DHT22;32452;51.382;-0.002;2023-11-18T14:27:30;14.70;99.90
46720;DHT22;32452;51.382;-0.002;2023-11-18T14:30:16;14.70;99.90
46720;DHT22;32452;51.382;-0.002;2023-11-18T14:33:02;14.60;99.90
46720;DHT22;32452;51.382;-0.002;2023-11-18T14:35:49;14.60;99.90
46720;DHT22;32452;51.382;-0.002;2023-11-18T14:38:35;14.60;99.90
46720;DHT22;32452;51.382;-0.002;2023-11-18T14:41:23;14.60;99.90
46720;DHT22;32452;51.382;-0.002;2023-11-18T14:44:14;14.60;99.90
46720;DHT22;32452;51.382;-0.002;2023-11-18T14:47:00;14.60;99.90
46720;DHT22;32452;51.382;-0.002;2023-11-18T14:49:46;14.60;99.90
46720;DHT22;32452;51.382;-0.002;2023-11-18T14:52:31;14.60;99.90
46720;DHT22;32452;51.382;-0.002;2023-11-18T14:55:19;14.60;99.90
46720;DHT22;32452;51.382;-0.002;2023-11-18T14:58:05;14.60;99.90
46720;DHT22;32452;51.382;-0.002;2023-11-18T15:00:52;14.60;99.90
46720;DHT22;32452;51.382;-0.002;2023-11-18T15:03:42;14.60;99.90
46720;DHT22;32452;51.382;-0.002;2023-11-18T15:06:27;14.60;99.90
46720;DHT22;32452;51.382;-0.002;2023-11-18T15:09:14;14.60;99.90
46720;DHT22;32452;51.382;-0.002;2023-11-18T15:12:00;14.60;99.90
46720;DHT22;32452;51.382;-0.002;2023-11-18T15:14:45;14.50;99.90
46720;DHT22;32452;51.382;-0.002;2023-11-18T15:17:31;14.50;99.90
46720;DHT22;32452;51.382;-0.002;2023-11-18T15:20:32;14.50;99.90
46720;DHT22;32452;51.382;-0.002;2023-11-18T15:23:18;14.50;99.90
46720;DHT22;32452;51.382;-0.002;2023-11-18T15:26:07;14.50;99.90
46720;DHT22;32452;51.382;-0.002;2023-11-18T15:28:54;14.50;99.90
46720;DHT22;32452;51.382;-0.002;2023-11-18T15:31:40;14.40;99.90
46720;DHT22;32452;51.382;-0.002;2023-11-18T15:34:26;14.40;99.90
46720;DHT22;32452;51.382;-0.002;2023-11-18T15:37:12;14.40;99.90
46720;DHT22;32452;51.382;-0.002;2023-11-18T15:39:57;14.30;99.90
46720;DHT22;32452;51.382;-0.002;2023-11-18T15:42:44;14.30;99.90
46720;DHT22;32452;51.382;-0.002;2023-11-18T15:45:34;14.30;99.90
46720;DHT22;32452;51.382;-0.002;2023-11-18T15:48:19;14.30;99.90
46720;DHT22;32452;51.382;-0.002;2023-11-18T15:51:05;14.30;99.90
46720;DHT22;32452;51.382;-0.002;2023-11-18T15:53:52;14.20;99.90
46720;DHT22;32452;51.382;-0.002;2023-11-18T15:56:38;14.20;99.90
46720;DHT22;32452;51.382;-0.002;2023-11-18T15:59:23;14.20;99.90
46720;DHT22;32452;51.382;-0.002;2023-11-18T16:02:11;14.10;99.90
46720;DHT22;32452;51.382;-0.002;2023-11-18T16:04:58;14.10;99.90
46720;DHT22;32452;51.382;-0.002;2023-11-18T16:07:44;14.10;99.90
46720;DHT22;32452;51.382;-0.002;2023-11-18T16:10:30;14.10;99.90
46720;DHT22;32452;51.382;-0.002;2023-11-18T16:13:16;14.10;99.90
46720;DHT22;32452;51.382;-0.002;2023-11-18T16:16:05;14.10;99.90
46720;DHT22;32452;51.382;-0.002;2023-11-18T16:18:53;14.00;99.90
46720;DHT22;32452;51.382;-0.002;2023-11-18T16:21:40;14.10;99.90
46720;DHT22;32452;51.382;-0.002;2023-11-18T16:24:26;14.00;99.90
46720;DHT22;32452;51.382;-0.002;2023-11-18T16:27:11;14.00;99.90
46720;DHT22;32452;51.382;-0.002;2023-11-18T16:29:57;14.00;99.90
46720;DHT22;32452;51.382;-0.002;2023-11-18T16:32:43;13.90;99.90
46720;DHT22;32452;51.382;-0.002;2023-11-18T16:35:33;14.00;99.90
46720;DHT22;32452;51.382;-0.002;2023-11-18T16:38:19;13.90;99.90
46720;DHT22;32452;51.382;-0.002;2023-11-18T16:41:04;14.00;99.90
46720;DHT22;32452;51.382;-0.002;2023-11-18T16:43:50;13.90;99.90
46720;DHT22;32452;51.382;-0.002;2023-11-18T16:46:40;13.90;99.90
46720;DHT22;32452;51.382;-0.002;2023-11-18T16:49:25;13.90;99.90
46720;DHT22;32452;51.382;-0.002;2023-11-18T16:52:11;13.90;99.90
46720;DHT22;32452;51.382;-0.002;2023-11-18T16:54:57;13.90;99.90
46720;DHT22;32452;51.382;-0.002;2023-11-18T16:57:42;13.90;99.90
46720;DHT22;32452;51.382;-0.002;2023-11-18T17:00:28;13.90;99.90
46720;DHT22;32452;51.382;-0.002;2023-11-18T17:03:16;13.90;99.90
46720;DHT22;32452;51.382;-0.002;2023-11-18T17:06:03;13.90;99.90
46720;DHT22;32452;51.382;-0.002;2023-11-18T17:08:49;13.90;99.90
46720;DHT22;32452;51.382;-0.002;2023-11-18T17:11:34;13.90;99.90
46720;DHT22;32452;51.382;-0.002;2023-11-18T17:14:20;13.90;99.90
46720;DHT22;32452;51.382;-0.002;2023-11-18T17:17:07;13.90;99.90
46720;DHT22;32452;51.382;-0.002;2023-11-18T17:19:54;13.90;99.90
46720;DHT22;32452;51.382;-0.002;2023-11-18T17:22:40;13.90;99.90
46720;DHT22;32452;51.382;-0.002;2023-11-18T17:25:27;13.90;99.90
46720;DHT22;32452;51.382;-0.002;2023-11-18T17:28:12;13.90;99.90
46720;DHT22;32452;51.382;-0.002;2023-11-18T17:31:01;13.90;99.90
46720;DHT22;32452;51.382;-0.002;2023-11-18T17:33:52;13.90;99.90
46720;DHT22;32452;51.382;-0.002;2023-11-18T17:36:37;13.90;99.90
46720;DHT22;32452;51.382;-0.002;2023-11-18T17:39:23;14.00;99.90
46720;DHT22;32452;51.382;-0.002;2023-11-18T17:42:09;13.90;99.90
46720;DHT22;32452;51.382;-0.002;2023-11-18T17:44:54;14.00;99.90
46720;DHT22;32452;51.382;-0.002;2023-11-18T17:47:41;13.90;99.90
46720;DHT22;32452;51.382;-0.002;2023-11-18T17:50:29;13.90;99.90
46720;DHT22;32452;51.382;-0.002;2023-11-18T17:53:14;13.90;99.90
46720;DHT22;32452;51.382;-0.002;2023-11-18T17:56:01;13.90;99.90
46720;DHT22;32452;51.382;-0.002;2023-11-18T17:58:46;13.90;99.90